KFYM

Fayetteville Municipal Airport

Fayetteville, Tennessee, USA
METAR KFYM 212335Z AUTO 21007KT 10SM SCT033 SCT040 SCT046 28/22 A2980 RMK A01
Observed Flight Rules
Jun-21 @ 23:35 UTC (23 minutes ago) Visual Flight Rules
Wind Visibility Clouds
210° at 7 knots 10 miles
  • Scattered at 3,300' AGL
  • Scattered at 4,000' AGL
  • Scattered at 4,600' AGL
Temperatures Readings
Current 28°C / 82°F
Dewpoint 22°C / 72°F
Humidity 70%
Altimeter 29.8" Hg
Pressure 1009 hPa
Elevation 300
METAR KFYM 212335Z AUTO 21007KT 10SM SCT033 SCT040 SCT046 28/22 A2980 RMK A01
Observed Flight Rules
Jun-21 @ 23:35 UTC
(23 minutes ago)
VFR
Wind Visibility
210° at 7 knots 10 miles
Clouds
  • Scattered at 3,300' AGL
  • Scattered at 4,000' AGL
  • Scattered at 4,600' AGL
Temperature Dewpoint
28°C / 82°F 22°C / 72°F
Humidity Altimeter Pressure
70% 29.8" Hg 1009 hPa